Time;durP1;ratioP1;P1;durP2;ratioP2;P2;SDS_P1;SDS_P2;PMS_P1;PMS_P2;Temp;Humidity;BMP_temperature;BMP_pressure;BME280_temperature;BME280_humidity;BME280_pressure;Samples;Min_cycle;Max_cycle;Signal;HPM_P1;HPM_P2
2022/05/13 00:02:14;;;;;;;9.10;3.50;;;13.20;99.90;;;;;;5057081;28;20041;-71
2022/05/13 00:04:41;;;;;;;7.45;2.47;;;13.20;99.90;;;;;;5055966;28;20041;-71
2022/05/13 00:07:08;;;;;;;7.68;2.53;;;13.30;99.90;;;;;;5054865;28;20162;-71
2022/05/13 00:12:21;;;;;;;6.72;2.33;;;13.30;99.90;;;;;;5055722;28;20041;-71
2022/05/13 00:14:48;;;;;;;6.25;2.05;;;13.30;99.90;;;;;;5055296;28;20406;-70
2022/05/13 00:17:15;;;;;;;6.28;2.00;;;13.20;99.90;;;;;;5054496;28;20037;-70
2022/05/13 00:19:41;;;;;;;11.20;2.45;;;13.20;99.90;;;;;;5056014;28;20052;-71
2022/05/13 00:22:08;;;;;;;5.28;2.20;;;13.20;99.90;;;;;;5055565;28;20045;-70
2022/05/13 00:24:35;;;;;;;9.35;2.78;;;13.10;99.90;;;;;;5054345;28;20045;-71
2022/05/13 00:27:03;;;;;;;7.35;2.42;;;13.10;99.90;;;;;;5054679;28;20040;-71
2022/05/13 00:29:30;;;;;;;8.50;2.20;;;13.10;99.90;;;;;;5054806;28;20045;-71
2022/05/13 00:31:57;;;;;;;9.48;2.47;;;13.10;99.90;;;;;;5054602;28;20041;-71
2022/05/13 00:34:24;;;;;;;6.85;2.58;;;13.10;99.90;;;;;;5056473;28;20041;-71
2022/05/13 00:36:51;;;;;;;8.43;2.20;;;13.00;99.90;;;;;;5054445;28;20037;-71
2022/05/13 00:39:19;;;;;;;6.32;2.05;;;13.00;99.90;;;;;;5037788;28;20481;-71
2022/05/13 00:41:47;;;;;;;5.90;2.00;;;13.00;99.90;;;;;;5054329;28;20137;-71
2022/05/13 00:44:14;;;;;;;5.82;2.25;;;12.90;99.90;;;;;;5054491;28;20053;-70
2022/05/13 00:46:41;;;;;;;6.95;2.45;;;12.90;99.90;;;;;;5054868;28;20415;-70
2022/05/13 00:49:10;;;;;;;9.77;2.67;;;12.80;99.90;;;;;;5054018;28;20041;-70
2022/05/13 00:51:39;;;;;;;8.53;3.13;;;12.80;99.90;;;;;;5037713;28;20045;-70
2022/05/13 00:54:06;;;;;;;;;;;12.70;99.90;;;;;;5054181;28;20274;-70
2022/05/13 00:56:34;;;;;;;8.90;3.25;;;12.60;99.90;;;;;;5053717;28;19927;-69
2022/05/13 00:59:02;;;;;;;10.88;3.05;;;12.60;99.90;;;;;;5053243;28;20056;-70
2022/05/13 01:01:29;;;;;;;10.63;2.63;;;12.60;99.90;;;;;;5054216;28;20041;-70
2022/05/13 01:04:02;;;;;;;7.35;2.15;;;12.50;99.90;;;;;;5053970;28;20076;-70
2022/05/13 01:06:29;;;;;;;6.20;2.17;;;12.40;99.90;;;;;;5053632;28;20047;-70
2022/05/13 01:08:56;;;;;;;5.22;2.13;;;12.40;99.90;;;;;;5054381;28;20099;-71
2022/05/13 01:11:25;;;;;;;7.95;2.33;;;12.30;99.90;;;;;;5054919;28;20045;-71
2022/05/13 01:13:56;;;;;;;8.23;3.05;;;12.30;99.90;;;;;;5037352;28;20045;-70
2022/05/13 01:16:23;;;;;;;2.65;1.50;;;12.30;99.90;;;;;;5054393;28;20045;-70
2022/05/13 01:18:51;;;;;;;4.15;2.15;;;12.20;99.90;;;;;;5054599;28;20099;-70
2022/05/13 01:21:24;;;;;;;5.53;1.40;;;12.20;99.90;;;;;;5053345;28;20044;-70
2022/05/13 01:23:52;;;;;;;10.40;2.20;;;12.10;99.90;;;;;;5055397;28;20092;-70
2022/05/13 01:26:26;;;;;;;6.53;1.58;;;12.10;99.90;;;;;;5053624;28;20045;-70
2022/05/13 01:28:54;;;;;;;6.45;2.05;;;12.10;99.90;;;;;;5053265;28;20218;-70
2022/05/13 01:31:27;;;;;;;7.05;1.73;;;12.00;99.90;;;;;;5053014;28;20041;-71
2022/05/13 01:33:54;;;;;;;5.20;1.70;;;12.00;99.90;;;;;;5053081;28;20469;-70
2022/05/13 01:36:21;;;;;;;5.97;1.85;;;12.00;99.90;;;;;;5053441;28;20048;-71
2022/05/13 01:38:49;;;;;;;3.80;1.45;;;12.00;99.90;;;;;;5052946;28;20044;-70
2022/05/13 01:41:16;;;;;;;4.57;1.52;;;12.00;99.90;;;;;;5052896;28;20044;-70
2022/05/13 01:43:43;;;;;;;6.10;2.03;;;11.90;99.90;;;;;;5052883;28;20045;-70
2022/05/13 01:46:11;;;;;;;3.40;1.50;;;11.90;99.90;;;;;;5053151;28;20037;-70
2022/05/13 01:48:38;;;;;;;5.18;1.77;;;11.90;99.90;;;;;;5052831;28;20048;-70
2022/05/13 01:51:05;;;;;;;4.50;1.85;;;11.90;99.90;;;;;;5053698;28;20045;-70
2022/05/13 01:53:32;;;;;;;6.03;1.80;;;11.80;99.90;;;;;;5053917;28;20479;-70
2022/05/13 01:55:59;;;;;;;4.82;1.27;;;11.80;99.90;;;;;;5052969;28;20045;-70
2022/05/13 01:58:32;;;;;;;8.10;1.92;;;11.80;99.90;;;;;;5053324;28;20445;-70
2022/05/13 02:00:59;;;;;;;5.03;1.58;;;11.80;99.90;;;;;;5053879;28;20048;-70
2022/05/13 02:03:45;;;;;;;7.60;1.80;;;11.80;99.90;;;;;;5052876;28;20049;-70
2022/05/13 02:06:17;;;;;;;3.22;1.33;;;11.80;99.90;;;;;;5053952;28;20045;-70
2022/05/13 02:08:44;;;;;;;7.45;1.90;;;11.80;99.90;;;;;;5054581;28;20049;-71
2022/05/13 02:11:11;;;;;;;6.38;2.40;;;11.80;99.90;;;;;;5052509;28;20041;-70
2022/05/13 02:13:38;;;;;;;6.57;1.45;;;11.80;99.90;;;;;;5052355;28;20486;-70
2022/05/13 02:16:05;;;;;;;6.40;1.67;;;11.80;99.90;;;;;;5052388;28;20045;-70
2022/05/13 02:18:32;;;;;;;3.60;1.23;;;11.70;99.90;;;;;;5053705;28;20052;-70
2022/05/13 02:20:59;;;;;;;4.95;1.75;;;11.70;99.90;;;;;;5052470;28;20048;-70
2022/05/13 02:23:26;;;;;;;4.88;1.77;;;11.70;99.90;;;;;;5053524;28;20057;-70
2022/05/13 02:25:58;;;;;;;5.57;1.85;;;11.70;99.90;;;;;;5052160;28;20045;-70
2022/05/13 02:28:24;;;;;;;4.68;1.50;;;11.70;99.90;;;;;;5052397;28;20045;-70
2022/05/13 02:30:51;;;;;;;6.70;2.03;;;11.60;99.90;;;;;;5036406;28;20052;-69
2022/05/13 02:33:18;;;;;;;5.22;1.60;;;11.60;99.90;;;;;;5053636;28;20064;-69
2022/05/13 02:35:45;;;;;;;7.35;1.73;;;11.60;99.90;;;;;;5053460;28;20048;-70
2022/05/13 02:38:14;;;;;;;5.13;1.45;;;11.60;99.90;;;;;;5054009;28;20045;-70
2022/05/13 02:43:26;;;;;;;5.70;2.78;;;11.60;99.90;;;;;;5053443;28;20060;-70
2022/05/13 02:45:53;;;;;;;4.50;1.95;;;11.50;99.90;;;;;;5052755;28;20041;-70
2022/05/13 02:48:20;;;;;;;2.97;1.60;;;11.50;99.90;;;;;;5053105;28;20538;-70
2022/05/13 02:50:47;;;;;;;5.18;2.45;;;11.50;99.90;;;;;;5035622;28;20045;-70
2022/05/13 02:53:14;;;;;;;5.35;1.70;;;11.50;99.90;;;;;;5054139;28;20044;-70
2022/05/13 02:55:41;;;;;;;5.40;1.42;;;11.40;99.90;;;;;;5052139;28;20045;-70
2022/05/13 02:58:08;;;;;;;4.13;1.65;;;11.40;99.90;;;;;;5053009;28;20465;-70
2022/05/13 03:00:35;;;;;;;5.78;1.88;;;11.40;99.90;;;;;;5051853;28;20056;-71
2022/05/13 03:03:02;;;;;;;6.80;1.58;;;11.40;99.90;;;;;;5053347;28;20044;-70
2022/05/13 03:05:29;;;;;;;8.35;1.92;;;11.30;99.90;;;;;;5054052;28;20361;-70
2022/05/13 03:08:00;;;;;;;4.40;1.55;;;11.30;99.90;;;;;;5053497;28;20045;-70
2022/05/13 03:10:29;;;;;;;7.78;1.60;;;11.30;99.90;;;;;;5052888;28;20132;-70
2022/05/13 03:12:57;;;;;;;4.47;1.70;;;11.30;99.90;;;;;;5051709;28;20044;-69
2022/05/13 03:15:24;;;;;;;7.75;1.85;;;11.30;99.90;;;;;;5051667;28;20488;-69
2022/05/13 03:17:51;;;;;;;4.40;1.85;;;11.20;99.90;;;;;;5052001;28;20388;-70
2022/05/13 03:20:19;;;;;;;5.00;1.63;;;11.20;99.90;;;;;;5053893;28;20048;-70
2022/05/13 03:22:51;;;;;;;3.78;1.80;;;11.20;99.90;;;;;;5057044;28;20337;-69
2022/05/13 03:25:19;;;;;;;7.07;1.60;;;11.20;99.90;;;;;;5056305;28;20453;-70
2022/05/13 03:27:46;;;;;;;7.88;1.92;;;11.20;99.90;;;;;;5039982;28;20060;-69
2022/05/13 03:30:14;;;;;;;9.05;1.92;;;11.20;99.90;;;;;;5056192;28;20049;-70
2022/05/13 03:32:41;;;;;;;6.63;1.35;;;11.10;99.90;;;;;;5055678;28;20067;-70
2022/05/13 03:35:09;;;;;;;7.25;1.85;;;11.10;99.90;;;;;;5055720;28;20044;-69
2022/05/13 03:37:36;;;;;;;4.32;2.17;;;11.10;99.90;;;;;;5039082;28;20051;-69
2022/05/13 03:40:05;;;;;;;7.75;1.52;;;11.10;99.90;;;;;;5056810;28;20048;-70
2022/05/13 03:42:31;;;;;;;4.43;1.52;;;11.00;99.90;;;;;;5055230;28;20423;-70
2022/05/13 03:44:58;;;;;;;8.27;1.58;;;11.00;99.90;;;;;;5055181;28;20087;-70
2022/05/13 03:47:25;;;;;;;5.57;1.40;;;11.00;99.90;;;;;;5055442;28;20041;-69
2022/05/13 03:49:52;;;;;;;7.22;2.05;;;11.00;99.90;;;;;;5055340;28;20037;-69
2022/05/13 03:52:19;;;;;;;4.53;2.03;;;11.00;99.90;;;;;;5056741;28;20048;-69
2022/05/13 03:54:46;;;;;;;4.80;1.60;;;11.00;99.90;;;;;;5057261;28;20155;-70
2022/05/13 03:57:13;;;;;;;3.33;1.73;;;11.00;99.90;;;;;;5056414;28;20040;-69
2022/05/13 03:59:40;;;;;;;6.07;1.70;;;11.00;99.90;;;;;;5055959;28;20378;-69
2022/05/13 04:02:07;;;;;;;6.90;1.90;;;10.90;99.90;;;;;;5054808;28;20052;-70
2022/05/13 04:10:05;;;;;;;6.78;2.25;;;10.90;99.90;;;;;;5056813;28;20423;-70
2022/05/13 04:18:03;;;;;;;9.95;2.20;;;10.90;99.90;;;;;;5055995;28;20481;-70
2022/05/13 04:20:32;;;;;;;8.45;2.67;;;10.90;99.90;;;;;;5056498;28;20037;-70
2022/05/13 04:22:59;;;;;;;6.35;2.10;;;10.80;99.90;;;;;;5055904;28;20037;-70
2022/05/13 04:25:26;;;;;;;9.70;3.58;;;10.90;99.90;;;;;;5056396;28;20044;-70
2022/05/13 04:27:53;;;;;;;5.80;2.05;;;10.90;99.90;;;;;;5054578;28;20045;-70
2022/05/13 04:30:20;;;;;;;9.35;2.28;;;10.90;99.90;;;;;;5054841;28;20056;-70
2022/05/13 04:32:47;;;;;;;10.35;2.65;;;10.90;99.90;;;;;;5054429;28;20396;-70
2022/05/13 04:35:14;;;;;;;5.65;2.45;;;11.00;99.90;;;;;;5054806;28;20041;-70
2022/05/13 04:37:41;;;;;;;16.17;2.50;;;11.00;99.90;;;;;;5055270;28;20484;-69
2022/05/13 04:40:08;;;;;;;8.32;2.03;;;11.00;99.90;;;;;;5055276;28;20037;-70
2022/05/13 04:42:50;;;;;;;13.45;2.72;;;11.10;99.90;;;;;;5037642;28;20477;-70
2022/05/13 04:45:23;;;;;;;8.48;2.22;;;11.10;99.90;;;;;;5054201;28;20041;-69
2022/05/13 04:48:16;;;;;;;4.65;2.30;;;11.20;99.90;;;;;;5055715;28;20045;-70
2022/05/13 04:50:56;;;;;;;10.15;2.42;;;11.20;99.90;;;;;;5055420;28;20091;-70
2022/05/13 04:53:29;;;;;;;13.68;2.58;;;11.30;99.90;;;;;;5037985;28;20084;-71
2022/05/13 04:55:56;;;;;;;7.88;2.42;;;11.40;99.90;;;;;;5055855;28;20468;-70
2022/05/13 04:58:23;;;;;;;9.68;2.67;;;11.50;99.90;;;;;;5054990;28;20041;-70
2022/05/13 05:00:51;;;;;;;10.70;2.30;;;11.60;99.90;;;;;;5055005;28;20049;-70
2022/05/13 05:03:36;;;;;;;6.75;2.60;;;11.90;99.90;;;;;;5054279;28;20094;-71
2022/05/13 05:06:03;;;;;;;8.70;2.42;;;12.30;99.90;;;;;;5054936;28;20083;-70
2022/05/13 05:08:30;;;;;;;8.27;2.58;;;12.60;99.90;;;;;;5053589;28;20043;-70
2022/05/13 05:10:57;;;;;;;6.57;2.30;;;12.90;99.90;;;;;;5055465;28;20041;-69
2022/05/13 05:13:30;;;;;;;6.72;2.25;;;13.30;99.90;;;;;;5053542;28;20495;-69
2022/05/13 05:15:57;;;;;;;5.55;1.83;;;13.70;99.90;;;;;;5053518;28;20099;-69
2022/05/13 05:18:24;;;;;;;8.55;2.10;;;14.00;99.90;;;;;;5038081;28;20041;-69
2022/05/13 05:20:51;;;;;;;5.70;2.15;;;14.10;99.90;;;;;;5053635;28;20124;-69
2022/05/13 05:23:24;;;;;;;7.03;1.90;;;14.30;99.90;;;;;;5054542;28;20045;-69
2022/05/13 05:25:51;;;;;;;5.55;1.88;;;14.70;99.90;;;;;;5054414;28;20045;-69
2022/05/13 05:28:26;;;;;;;5.53;1.73;;;14.90;99.90;;;;;;5038894;28;20374;-69
2022/05/13 05:30:53;;;;;;;5.03;2.70;;;15.20;99.90;;;;;;5053192;28;20043;-70
2022/05/13 05:33:20;;;;;;;9.70;2.40;;;15.50;99.90;;;;;;5054518;28;20786;-71
2022/05/13 05:35:47;;;;;;;9.40;2.42;;;15.70;99.90;;;;;;5054119;28;20393;-70
2022/05/13 05:38:14;;;;;;;5.00;1.80;;;15.90;99.90;;;;;;5054243;28;20041;-70
2022/05/13 05:40:41;;;;;;;6.68;2.42;;;16.10;99.90;;;;;;5054182;28;20063;-69
2022/05/13 05:43:13;;;;;;;8.50;1.98;;;16.10;99.90;;;;;;5053269;28;20045;-70
2022/05/13 05:45:40;;;;;;;7.63;3.13;;;16.10;99.90;;;;;;5054147;28;20048;-70
2022/05/13 05:48:13;;;;;;;9.32;2.40;;;16.00;99.90;;;;;;5054887;28;20127;-70
2022/05/13 05:50:40;;;;;;;6.72;2.03;;;15.90;99.90;;;;;;5054369;28;20048;-69
2022/05/13 05:53:07;;;;;;;8.25;3.20;;;15.70;99.90;;;;;;5053769;28;20468;-69
2022/05/13 05:58:19;;;;;;;8.13;2.50;;;15.60;99.90;;;;;;5054737;28;20060;-70
2022/05/13 06:00:48;;;;;;;6.40;2.17;;;15.50;99.90;;;;;;5054490;28;20068;-70
2022/05/13 06:03:15;;;;;;;5.60;2.33;;;15.40;99.90;;;;;;5052873;28;20052;-70
2022/05/13 06:05:43;;;;;;;11.80;2.50;;;15.40;99.90;;;;;;5052512;28;20475;-69
2022/05/13 06:08:10;;;;;;;6.78;3.00;;;15.40;99.90;;;;;;5053988;28;20041;-70
2022/05/13 06:10:37;;;;;;;10.45;3.55;;;15.30;99.90;;;;;;5052382;28;20477;-69
2022/05/13 06:13:07;;;;;;;8.13;2.38;;;15.30;99.90;;;;;;5036081;28;20416;-68
2022/05/13 06:15:34;;;;;;;7.95;2.20;;;15.30;99.90;;;;;;5054673;28;20381;-68
2022/05/13 06:18:01;;;;;;;12.25;3.47;;;15.30;99.90;;;;;;5053421;28;20041;-68
2022/05/13 06:20:30;;;;;;;18.20;11.93;;;15.30;99.90;;;;;;5052348;28;20047;-65
2022/05/13 06:22:57;;;;;;;25.60;19.50;;;15.30;99.90;;;;;;5036007;28;20047;-68
2022/05/13 06:25:24;;;;;;;8.75;3.88;;;15.30;99.90;;;;;;5052558;28;20053;-67
2022/05/13 06:27:52;;;;;;;7.15;2.70;;;15.20;99.90;;;;;;5052259;28;20052;-66
2022/05/13 06:30:30;;;;;;;8.02;3.00;;;15.10;99.90;;;;;;5036004;28;20052;-69
2022/05/13 06:32:57;;;;;;;9.53;2.77;;;15.10;99.90;;;;;;5053218;28;20045;-70
2022/05/13 06:35:25;;;;;;;12.00;3.03;;;15.10;99.90;;;;;;5053558;28;20068;-69
2022/05/13 06:37:52;;;;;;;10.75;5.95;;;15.10;99.90;;;;;;5052299;28;20128;-69
2022/05/13 06:40:19;;;;;;;16.02;8.75;;;15.20;99.90;;;;;;5036655;28;20041;-65
2022/05/13 06:42:45;;;;;;;9.82;3.88;;;15.20;99.90;;;;;;5052382;28;20098;-66
2022/05/13 06:45:12;;;;;;;10.10;3.65;;;15.20;99.90;;;;;;5053211;28;20047;-67
2022/05/13 06:47:39;;;;;;;8.43;3.15;;;15.20;99.90;;;;;;5052292;28;20045;-68
2022/05/13 06:50:07;;;;;;;7.55;2.90;;;15.20;99.90;;;;;;5051920;28;20050;-60
2022/05/13 06:52:36;;;;;;;9.93;3.00;;;15.20;99.90;;;;;;5052288;28;20045;-67
2022/05/13 06:55:08;;;;;;;8.68;3.03;;;15.30;99.90;;;;;;5037027;28;20037;-67
2022/05/13 06:57:37;;;;;;;9.43;3.33;;;15.50;99.90;;;;;;5059804;28;20472;-67
2022/05/13 07:00:08;;;;;;;7.55;3.33;;;15.40;99.90;;;;;;5058537;28;20139;-67
2022/05/13 07:02:36;;;;;;;12.98;4.32;;;15.50;99.90;;;;;;5058822;28;20084;-66
2022/05/13 07:05:03;;;;;;;12.27;3.83;;;15.50;99.90;;;;;;5058539;28;20041;-69
2022/05/13 07:07:30;;;;;;;17.77;4.30;;;15.60;99.90;;;;;;5059287;28;20107;-69
2022/05/13 07:09:58;;;;;;;9.35;3.92;;;15.60;99.90;;;;;;5058462;28;20450;-69
2022/05/13 07:12:25;;;;;;;12.35;3.65;;;15.70;99.90;;;;;;5058353;28;20080;-68
2022/05/13 07:14:53;;;;;;;9.95;3.33;;;15.80;99.90;;;;;;5060700;28;20392;-71
2022/05/13 07:17:21;;;;;;;8.02;3.10;;;15.90;99.90;;;;;;5059669;28;20075;-70
2022/05/13 07:19:48;;;;;;;12.95;4.05;;;16.00;99.90;;;;;;5058358;28;20051;-73
2022/05/13 07:22:15;;;;;;;14.43;3.75;;;16.20;99.90;;;;;;5059409;28;20048;-72
2022/05/13 07:24:42;;;;;;;8.20;3.17;;;16.20;99.90;;;;;;5058322;28;20049;-70
2022/05/13 07:27:09;;;;;;;7.65;2.92;;;16.20;99.90;;;;;;5058238;28;20045;-71
2022/05/13 07:29:36;;;;;;;8.82;3.22;;;16.20;99.90;;;;;;5059889;28;20051;-72
2022/05/13 07:32:03;;;;;;;7.43;3.92;;;16.20;99.90;;;;;;5059746;28;20045;-71
2022/05/13 07:34:30;;;;;;;8.30;4.50;;;16.10;99.90;;;;;;5058471;28;20037;-69
2022/05/13 07:36:56;;;;;;;9.60;3.28;;;16.10;99.90;;;;;;5060421;28;20056;-70
2022/05/13 07:42:10;;;;;;;105.10;94.65;;;16.00;99.90;;;;;;5059992;28;20484;-67
2022/05/13 07:44:37;;;;;;;58.25;47.70;;;15.90;99.90;;;;;;5060462;28;20044;-66
2022/05/13 07:47:05;;;;;;;15.82;8.32;;;15.90;99.90;;;;;;5058392;28;20041;-66
2022/05/13 07:49:32;;;;;;;11.45;5.60;;;15.90;99.90;;;;;;5058427;28;20037;-68
2022/05/13 07:51:59;;;;;;;10.77;5.22;;;15.90;99.90;;;;;;5058867;28;20369;-71
2022/05/13 07:54:26;;;;;;;8.68;3.55;;;16.00;99.90;;;;;;5059281;28;20595;-70
2022/05/13 07:56:53;;;;;;;9.75;3.83;;;16.00;99.90;;;;;;5059457;28;20052;-70
2022/05/13 07:59:20;;;;;;;8.25;3.70;;;16.30;99.90;;;;;;5059099;28;20040;-71
2022/05/13 08:01:47;;;;;;;12.15;2.95;;;16.50;99.90;;;;;;5059386;28;20123;-68
2022/05/13 08:04:14;;;;;;;12.30;3.58;;;16.70;99.90;;;;;;5059517;28;20068;-70
2022/05/13 08:06:41;;;;;;;14.73;3.10;;;16.90;99.90;;;;;;5059194;28;20469;-70
2022/05/13 08:09:08;;;;;;;12.80;2.70;;;17.00;99.90;;;;;;5055010;28;20056;-69
2022/05/13 08:11:35;;;;;;;24.13;3.67;;;17.10;99.90;;;;;;5056038;28;20514;-69
2022/05/13 08:14:06;;;;;;;8.82;3.17;;;17.00;99.90;;;;;;5056526;28;20124;-69
2022/05/13 08:16:35;;;;;;;12.23;2.97;;;17.00;99.90;;;;;;5054870;28;20045;-68
2022/05/13 08:19:02;;;;;;;;;;;17.00;99.90;;;;;;5056146;28;20132;-69
2022/05/13 08:21:29;;;;;;;9.90;2.80;;;16.90;99.90;;;;;;5055741;28;20399;-66
2022/05/13 08:23:56;;;;;;;11.85;3.05;;;16.80;99.90;;;;;;5055998;28;20461;-67
2022/05/13 08:26:23;;;;;;;562.63;427.25;;;16.70;99.90;;;;;;5056583;28;20060;-65
2022/05/13 08:28:50;;;;;;;78.80;70.45;;;16.70;99.90;;;;;;5055472;28;20041;-67
2022/05/13 08:31:17;;;;;;;30.27;23.50;;;16.50;99.90;;;;;;5038087;28;20500;-66
2022/05/13 08:33:44;;;;;;;13.10;9.50;;;16.50;99.90;;;;;;5055586;28;20076;-73
2022/05/13 08:36:14;;;;;;;11.55;4.65;;;16.40;99.90;;;;;;5054267;28;20465;-76
2022/05/13 08:38:43;;;;;;;17.13;3.63;;;16.40;99.90;;;;;;5054433;28;20045;-76
2022/05/13 08:41:10;;;;;;;8.38;3.10;;;16.40;99.90;;;;;;5055302;28;20127;-75
2022/05/13 08:43:47;;;;;;;11.40;2.80;;;16.30;99.90;;;;;;5055121;28;20055;-75
2022/05/13 08:46:17;;;;;;;6.13;2.40;;;16.30;99.90;;;;;;5055216;28;20051;-75
2022/05/13 08:48:48;;;;;;;10.80;3.00;;;16.20;99.90;;;;;;5055654;28;20468;-76
2022/05/13 08:51:45;;;;;;;6.85;2.50;;;16.10;99.90;;;;;;5055649;28;20041;-75
2022/05/13 08:54:15;;;;;;;9.05;2.47;;;16.00;99.90;;;;;;5055197;28;20052;-75
2022/05/13 08:56:45;;;;;;;6.43;3.05;;;15.90;99.90;;;;;;5055831;28;20036;-76
2022/05/13 08:59:15;;;;;;;23.00;14.30;;;15.90;99.90;;;;;;5053575;28;20045;-67
2022/05/13 09:01:45;;;;;;;11.55;5.82;;;15.80;99.90;;;;;;5053815;28;20051;-67
2022/05/13 09:04:19;;;;;;;12.85;4.05;;;15.80;99.90;;;;;;5053721;28;20041;-67
2022/05/13 09:06:51;;;;;;;9.68;2.80;;;16.00;99.90;;;;;;5054016;28;20045;-67
2022/05/13 09:09:18;;;;;;;6.88;2.55;;;16.00;99.90;;;;;;5053586;28;20124;-67
2022/05/13 09:11:56;;;;;;;8.23;2.42;;;16.10;99.90;;;;;;5054901;28;20174;-67
2022/05/13 09:15:00;;;;;;;6.15;2.38;;;16.10;99.90;;;;;;5053957;28;20045;-67
2022/05/13 09:17:37;;;;;;;6.38;2.55;;;16.10;99.90;;;;;;5055166;28;20159;-67
2022/05/13 09:20:13;;;;;;;8.00;2.15;;;16.20;99.90;;;;;;5053233;28;20048;-67
2022/05/13 09:22:44;;;;;;;8.45;2.83;;;16.50;99.90;;;;;;5055368;28;20077;-67
2022/05/13 09:25:25;;;;;;;9.50;2.67;;;16.70;99.90;;;;;;5054190;28;20044;-67
2022/05/13 09:27:59;;;;;;;7.45;2.65;;;17.00;99.90;;;;;;5053189;28;20041;-67
2022/05/13 09:30:46;;;;;;;11.05;3.67;;;17.20;99.90;;;;;;5053471;28;20124;-67
2022/05/13 09:33:23;;;;;;;9.00;2.55;;;17.30;99.90;;;;;;5053891;28;20041;-67
2022/05/13 09:35:53;;;;;;;11.25;3.13;;;17.30;99.90;;;;;;5055111;28;20122;-67
2022/05/13 09:38:25;;;;;;;8.63;3.03;;;17.40;99.90;;;;;;5052955;28;20048;-67
2022/05/13 09:41:06;;;;;;;11.02;2.97;;;17.40;99.90;;;;;;5054043;28;20045;-67
2022/05/13 09:43:32;;;;;;;8.27;2.55;;;17.40;99.90;;;;;;5052948;28;20041;-67
2022/05/13 09:46:08;;;;;;;10.38;2.90;;;17.40;99.90;;;;;;5052940;28;20047;-67
2022/05/13 09:48:37;;;;;;;12.10;3.72;;;17.60;99.90;;;;;;5052930;28;20049;-67
2022/05/13 09:51:25;;;;;;;9.00;3.35;;;17.70;99.90;;;;;;5052870;28;20049;-67
2022/05/13 09:54:12;;;;;;;8.13;3.20;;;17.80;99.90;;;;;;5053558;28;20074;-67
2022/05/13 09:56:47;;;;;;;8.25;3.13;;;17.80;99.90;;;;;;5054227;28;20045;-67
2022/05/13 09:59:22;;;;;;;9.32;3.40;;;18.00;99.60;;;;;;5053507;28;20425;-67
2022/05/13 10:01:50;;;;;;;8.57;2.75;;;18.10;99.30;;;;;;5053246;28;20049;-67
2022/05/13 10:04:25;;;;;;;6.65;2.35;;;18.10;97.60;;;;;;5052712;28;20049;-67
2022/05/13 10:07:06;;;;;;;7.40;2.75;;;18.20;98.20;;;;;;5052539;28;20041;-67
2022/05/13 10:15:20;;;;;;;86.03;70.35;;;18.60;95.70;;;;;;5052494;28;20037;-66
2022/05/13 10:17:49;;;;;;;25.60;19.92;;;18.70;95.90;;;;;;5052605;28;20145;-68
2022/05/13 10:20:24;;;;;;;17.38;7.40;;;18.80;93.50;;;;;;5052632;28;20068;-69
2022/05/13 10:22:59;;;;;;;7.38;3.30;;;18.80;91.80;;;;;;5035801;28;20511;-69
2022/05/13 10:25:46;;;;;;;7.35;3.08;;;18.80;91.90;;;;;;5035802;28;20473;-69
2022/05/13 10:28:15;;;;;;;7.63;2.72;;;18.90;92.90;;;;;;5036680;28;20049;-69
2022/05/13 10:30:58;;;;;;;5.63;2.47;;;19.10;92.60;;;;;;5051901;28;20041;-70
2022/05/13 10:33:36;;;;;;;6.90;2.20;;;19.20;90.20;;;;;;5052410;28;20045;-66
2022/05/13 10:36:15;;;;;;;6.80;2.50;;;19.20;90.20;;;;;;5053079;28;20044;-66
2022/05/13 10:38:53;;;;;;;7.93;2.30;;;19.30;88.00;;;;;;5053496;28;20052;-66
2022/05/13 10:41:28;;;;;;;8.37;2.43;;;19.40;87.60;;;;;;5053088;28;20052;-66
2022/05/13 10:44:07;;;;;;;5.15;2.83;;;19.40;90.20;;;;;;5052263;28;20045;-66
2022/05/13 10:46:35;;;;;;;;;;;19.50;89.30;;;;;;5052496;28;20483;-67
2022/05/13 10:49:31;;;;;;;7.13;3.15;;;19.70;87.40;;;;;;5052429;28;19923;-66
2022/05/13 10:52:02;;;;;;;6.90;2.85;;;19.90;86.90;;;;;;5051899;28;20098;-66
2022/05/13 10:54:39;;;;;;;6.32;2.42;;;20.00;85.80;;;;;;5036926;28;20059;-66
2022/05/13 10:57:12;;;;;;;30.30;26.60;;;20.00;84.50;;;;;;5036344;28;20045;-68
2022/05/13 10:59:43;;;;;;;10.77;4.80;;;20.10;84.50;;;;;;5053154;28;20048;-69
2022/05/13 11:02:55;;;;;;;9.02;2.97;;;20.20;84.70;;;;;;5052673;28;20041;-68
2022/05/13 11:05:40;;;;;;;10.32;6.38;;;20.30;85.00;;;;;;5052938;28;20425;-69
2022/05/13 11:08:28;;;;;;;8.32;5.25;;;20.40;82.10;;;;;;5052639;28;20044;-70
2022/05/13 11:11:35;;;;;;;7.78;2.88;;;20.60;80.30;;;;;;5052079;28;20049;-71
2022/05/13 11:14:02;;;;;;;6.30;2.58;;;20.70;76.70;;;;;;5051287;28;20041;-72
2022/05/13 11:16:47;;;;;;;7.40;2.95;;;20.70;79.10;;;;;;5053042;28;20102;-71
2022/05/13 11:19:36;;;;;;;6.68;2.72;;;20.80;77.00;;;;;;5053141;28;20500;-70
2022/05/13 11:22:06;;;;;;;5.28;2.13;;;20.90;77.70;;;;;;5051652;28;20111;-71
2022/05/13 11:27:51;;;;;;;8.70;2.38;;;20.90;77.00;;;;;;5053543;28;20136;-74
2022/05/13 11:30:19;;;;;;;8.73;2.65;;;20.90;76.00;;;;;;5052656;28;20041;-70
2022/05/13 11:33:22;;;;;;;4.72;2.38;;;20.90;76.60;;;;;;5051415;28;20047;-73
2022/05/13 11:36:21;;;;;;;7.88;2.40;;;20.80;74.10;;;;;;5053073;28;20099;-67
2022/05/13 11:38:51;;;;;;;6.82;2.22;;;20.80;74.70;;;;;;5052407;28;20041;-66
2022/05/13 11:41:21;;;;;;;9.32;3.80;;;20.90;76.00;;;;;;5052990;28;20049;-69
2022/05/13 11:44:08;;;;;;;10.95;2.85;;;20.90;76.40;;;;;;5057025;28;20106;-70
2022/05/13 11:46:50;;;;;;;5.03;2.22;;;20.80;73.20;;;;;;5055241;28;20049;-68
2022/05/13 11:49:29;;;;;;;7.65;2.83;;;20.90;73.90;;;;;;5057176;28;20380;-69
2022/05/13 11:52:23;;;;;;;8.63;3.50;;;20.90;74.50;;;;;;5055253;28;20109;-69
2022/05/13 11:54:50;;;;;;;8.88;2.95;;;21.00;73.70;;;;;;5055221;28;20071;-69
2022/05/13 11:57:18;;;;;;;6.82;2.50;;;20.90;75.40;;;;;;5038741;28;20056;-71
2022/05/13 11:59:55;;;;;;;11.77;5.57;;;21.00;76.00;;;;;;5055859;28;20060;-67
2022/05/13 12:02:32;;;;;;;13.23;6.18;;;21.10;74.40;;;;;;5054731;28;20045;-65
2022/05/13 12:05:06;;;;;;;6.20;2.53;;;21.10;73.50;;;;;;5055818;28;20045;-64
2022/05/13 12:07:52;;;;;;;10.07;3.45;;;21.20;73.00;;;;;;5055863;28;20112;-65
2022/05/13 12:10:29;;;;;;;6.38;2.55;;;21.10;73.20;;;;;;5056172;28;20049;-64
2022/05/13 12:13:20;;;;;;;9.05;3.05;;;21.10;74.30;;;;;;5055560;28;20051;-64
2022/05/13 12:16:09;;;;;;;6.55;1.90;;;21.10;74.00;;;;;;5054847;28;20041;-65
2022/05/13 12:18:54;;;;;;;8.30;2.30;;;21.00;73.40;;;;;;5054369;28;20073;-65
2022/05/13 12:21:28;;;;;;;10.13;2.55;;;20.70;73.30;;;;;;5055503;28;20401;-65
2022/05/13 12:24:04;;;;;;;4.82;2.47;;;20.70;75.10;;;;;;5055171;28;20128;-65
2022/05/13 12:26:52;;;;;;;5.38;2.30;;;20.70;74.40;;;;;;5039437;28;20487;-65
2022/05/13 12:29:31;;;;;;;5.57;2.08;;;20.60;74.90;;;;;;5055561;28;20041;-64
2022/05/13 12:31:58;;;;;;;7.55;2.70;;;20.60;74.80;;;;;;5055740;28;20059;-65
2022/05/13 12:37:37;;;;;;;7.10;3.17;;;20.60;75.20;;;;;;5054351;28;20045;-73
2022/05/13 12:40:11;;;;;;;11.63;5.93;;;20.70;75.90;;;;;;5055359;28;20045;-66
2022/05/13 12:42:47;;;;;;;6.55;2.53;;;20.80;75.20;;;;;;5056067;28;20063;-66
2022/05/13 12:45:39;;;;;;;5.88;1.90;;;20.80;76.60;;;;;;5054112;28;20047;-68
2022/05/13 12:48:06;;;;;;;7.40;2.63;;;20.70;74.30;;;;;;5055189;28;20472;-67
2022/05/13 12:50:48;;;;;;;7.40;2.15;;;20.70;76.00;;;;;;5055041;28;20119;-69
2022/05/13 12:53:30;;;;;;;6.53;2.67;;;20.70;75.90;;;;;;5055336;28;20041;-68
2022/05/13 12:56:07;;;;;;;9.73;2.58;;;20.70;75.20;;;;;;5054778;28;20091;-71
2022/05/13 12:58:37;;;;;;;10.48;2.60;;;20.70;75.20;;;;;;5055265;28;20067;-70
2022/05/13 13:01:04;;;;;;;17.60;10.48;;;20.80;74.40;;;;;;5053865;28;20060;-71
2022/05/13 13:03:37;;;;;;;11.90;7.40;;;20.80;74.80;;;;;;5054463;28;20114;-74
2022/05/13 13:06:16;;;;;;;8.88;3.38;;;20.80;74.00;;;;;;5038271;28;20443;-72
2022/05/13 13:08:45;;;;;;;7.47;2.95;;;20.90;75.70;;;;;;5053698;28;20098;-73
2022/05/13 13:11:33;;;;;;;5.85;2.08;;;21.00;73.50;;;;;;5053866;28;20045;-73
2022/05/13 13:14:33;;;;;;;8.18;2.30;;;21.00;74.10;;;;;;5054305;28;20140;-73
2022/05/13 13:17:06;;;;;;;6.45;2.42;;;21.10;72.10;;;;;;5054592;28;20041;-74
2022/05/13 13:19:36;;;;;;;5.25;2.60;;;21.10;72.00;;;;;;5055233;28;20372;-74
2022/05/13 13:22:14;;;;;;;8.15;2.13;;;21.00;71.70;;;;;;5053518;28;20507;-75
2022/05/13 13:24:41;;;;;;;4.57;1.85;;;20.90;74.00;;;;;;5054485;28;20445;-67
2022/05/13 13:27:16;;;;;;;8.43;2.42;;;20.80;72.30;;;;;;5037032;28;20154;-73
2022/05/13 13:29:44;;;;;;;8.68;2.78;;;20.80;74.60;;;;;;5054178;28;20086;-75
2022/05/13 13:32:16;;;;;;;8.75;1.90;;;20.80;72.70;;;;;;5054242;28;20051;-72
2022/05/13 13:34:56;;;;;;;5.38;2.35;;;20.90;73.60;;;;;;5054148;28;20048;-75
2022/05/13 13:37:24;;;;;;;8.70;2.53;;;20.90;71.60;;;;;;5054273;28;20373;-73
2022/05/13 13:39:54;;;;;;;5.28;2.30;;;20.90;74.10;;;;;;5037657;28;20045;-73
2022/05/13 13:42:21;;;;;;;12.82;9.65;;;20.90;72.50;;;;;;5052960;28;20041;-74